This is the latest recevied weather packets stored in our database for station/object WA7CUG. If no packets are shown the sender has not sent any weather packets the latest 10 day(s).
| Time | Temp. | Humidity | Pressure | Rain* | Wind** | Luminosity | Snow |
|---|---|---|---|---|---|---|---|
| 1777624791 | 10° C | 65% | 1018.8 hPa | 0 mm | - | 0 W/m² | - |
| 1777624486 | 10.56° C | 63% | 1018.8 hPa | 0 mm | - | 0 W/m² | - |
| 1777624185 | 10.56° C | 60% | 1018.6 hPa | 0 mm | - | 0 W/m² | - |
| 1777623881 | 10° C | 61% | 1018.6 hPa | 0 mm | - | 0 W/m² | - |
| 1777623577 | 10° C | 63% | 1018.8 hPa | 0 mm | - | 0 W/m² | - |
| 1777623276 | 10° C | 66% | 1018.8 hPa | 0 mm | - | 0 W/m² | - |
| 1777622972 | 10° C | 65% | 1018.8 hPa | 0 mm | - | 0 W/m² | - |
| 1777622669 | 10° C | 66% | 1018.9 hPa | 0 mm | - | 0 W/m² | - |
| 1777622365 | 10.56° C | 63% | 1018.8 hPa | 0 mm | - | 0 W/m² | - |
| 1777622062 | 10.56° C | 63% | 1018.9 hPa | 0 mm | - | 0 W/m² | - |
| 1777621757 | 11.11° C | 61% | 1018.9 hPa | 0 mm | - | 0 W/m² | - |
| 1777621454 | 11.11° C | 58% | 1018.9 hPa | 0 mm | - | 0 W/m² | - |
| 1777621149 | 10.56° C | 60% | 1018.6 hPa | 0 mm | - | 0 W/m² | - |
| 1777620846 | 10° C | 62% | 1018.5 hPa | 0 mm | - | 0 W/m² | - |
| 1777620542 | 10.56° C | 62% | 1018.8 hPa | 0 mm | - | 0 W/m² | - |
| 1777620239 | 10.56° C | 61% | 1018.6 hPa | 0 mm | - | 0 W/m² | - |
| 1777619936 | 10.56° C | 61% | 1018.8 hPa | 0 mm | - | 0 W/m² | - |
| 1777619636 | 11.11° C | 59% | 1018.5 hPa | 0 mm | - | 0 W/m² | - |
| 1777619331 | 11.67° C | 56% | 1018.5 hPa | 0 mm | - | 0 W/m² | - |
| 1777619026 | 11.11° C | 58% | 1018.4 hPa | 0 mm | - | 0 W/m² | - |
| 1777618721 | 11.11° C | 60% | 1018.6 hPa | 0 mm | - | 0 W/m² | - |
| 1777618417 | 11.67° C | 61% | 1018.5 hPa | 0 mm | - | 0 W/m² | - |
| 1777618114 | 11.67° C | 59% | 1018.5 hPa | 0 mm | - | 0 W/m² | - |
| 1777617811 | 12.22° C | 55% | 1018.5 hPa | 0 mm | - | 0 W/m² | - |
| 1777617510 | 12.78° C | 54% | 1018.3 hPa | 0 mm | - | 0 W/m² | - |
* Rain latest hour (hover to see other rain measurements)
** Current wind speed in m/s (hover to see current wind gust speed)